Time;durP1;ratioP1;P1;durP2;ratioP2;P2;SDS_P1;SDS_P2;PMS_P1;PMS_P2;Temp;Humidity;BMP_temperature;BMP_pressure;BME280_temperature;BME280_humidity;BME280_pressure;Samples;Min_cycle;Max_cycle;Signal;HPM_P1;HPM_P2
2021/06/25 00:00:16;;;;;;;16.27;12.83;;;;;;;29.01;49.37;99883.97;3526322;28;20047;-78
2021/06/25 00:01:57;;;;;;;15.00;12.93;;;;;;;29.00;49.32;99876.88;3526184;28;20365;-81
2021/06/25 00:03:39;;;;;;;16.30;12.53;;;;;;;28.98;49.05;99872.81;3515060;28;20036;-80
2021/06/25 00:05:19;;;;;;;18.60;12.30;;;;;;;28.98;49.14;99873.63;3512103;28;20054;-79
2021/06/25 00:07:00;;;;;;;14.67;10.93;;;;;;;28.99;48.95;99877.19;3510990;28;20044;-80
2021/06/25 00:08:41;;;;;;;14.97;11.53;;;;;;;28.98;48.85;99881.06;3494979;28;20478;-78
2021/06/25 00:10:23;;;;;;;16.07;11.40;;;;;;;28.97;49.04;99879.44;3509110;28;20126;-78
2021/06/25 00:12:07;;;;;;;18.20;12.30;;;;;;;28.94;49.13;99878.13;3511104;28;20105;-78
2021/06/25 00:13:48;;;;;;;21.20;11.98;;;;;;;28.95;49.20;99879.75;3505555;28;20036;-79
2021/06/25 00:15:29;;;;;;;18.98;11.73;;;;;;;28.94;49.23;99875.41;3523660;28;20047;-79
2021/06/25 00:17:12;;;;;;;17.33;10.80;;;;;;;28.94;48.95;99867.16;3526528;28;20039;-82
2021/06/25 00:18:52;;;;;;;17.50;11.68;;;;;;;28.90;48.98;99866.97;3512826;28;20494;-91
2021/06/25 00:20:33;;;;;;;17.17;12.60;;;;;;;28.88;49.42;99858.22;3512932;28;20040;-83
2021/06/25 00:22:14;;;;;;;16.38;12.50;;;;;;;28.89;49.18;99868.09;3511001;28;20289;-82
2021/06/25 00:23:55;;;;;;;21.43;13.10;;;;;;;28.89;49.21;99865.34;3517746;28;20540;-83
2021/06/25 00:25:36;;;;;;;19.20;12.07;;;;;;;28.85;49.44;99855.31;3514492;28;20293;-83
2021/06/25 00:27:16;;;;;;;19.67;12.33;;;;;;;28.87;49.19;99856.63;3513086;28;20055;-84
2021/06/25 00:28:57;;;;;;;18.23;12.40;;;;;;;28.86;49.17;99854.16;3511437;28;20305;-81
2021/06/25 00:30:38;;;;;;;22.87;12.17;;;;;;;28.83;49.38;99858.34;3513339;28;20048;-83
2021/06/25 00:32:19;;;;;;;;;;;;;;;28.88;49.02;99862.91;3513297;28;20071;-80
2021/06/25 00:34:00;;;;;;;22.88;12.35;;;;;;;28.82;49.04;99862.22;3524839;28;19922;-81
2021/06/25 00:35:41;;;;;;;19.00;12.53;;;;;;;28.80;49.42;99855.44;3525823;28;20036;-80
2021/06/25 00:37:22;;;;;;;15.70;11.67;;;;;;;28.79;49.54;99856.56;3526469;27;20329;-82
2021/06/25 00:39:03;;;;;;;16.87;13.30;;;;;;;28.79;49.58;99864.78;3526332;28;20079;-79
2021/06/25 00:40:44;;;;;;;20.02;13.48;;;;;;;28.78;49.35;99871.38;3526047;28;20410;-80
2021/06/25 00:42:25;;;;;;;17.27;12.05;;;;;;;28.66;49.64;99853.56;3526276;28;20047;-80
2021/06/25 00:44:13;;;;;;;18.13;13.00;;;;;;;28.70;49.90;99868.25;3511629;28;20054;-81
2021/06/25 00:45:54;;;;;;;15.15;12.85;;;;;;;28.65;49.50;99857.41;3511897;28;20422;-79
2021/06/25 00:47:34;;;;;;;22.33;14.40;;;;;;;28.62;50.19;99855.28;3512922;28;20048;-80
2021/06/25 00:49:16;;;;;;;16.93;14.00;;;;;;;28.57;50.21;99851.88;3535508;28;20035;-80
2021/06/25 00:50:57;;;;;;;21.80;14.73;;;;;;;28.52;50.04;99850.06;3526636;28;20046;-79
2021/06/25 00:52:38;;;;;;;19.40;15.85;;;;;;;28.52;50.61;99850.06;3510581;28;20067;-82
2021/06/25 00:54:18;;;;;;;19.73;14.43;;;;;;;28.45;50.65;99844.22;3514961;28;20040;-79
2021/06/25 00:56:00;;;;;;;19.07;14.77;;;;;;;28.36;50.34;99833.13;3521423;28;20275;-80
2021/06/25 00:57:41;;;;;;;25.13;15.50;;;;;;;28.42;50.68;99855.75;3507367;28;20537;-79
2021/06/25 00:59:21;;;;;;;20.67;13.90;;;;;;;28.39;50.78;99850.88;3512891;28;20044;-80
2021/06/25 01:01:02;;;;;;;23.17;13.52;;;;;;;28.37;50.61;99845.72;3512847;28;20805;-81
2021/06/25 01:02:44;;;;;;;19.63;14.83;;;;;;;28.37;50.93;99845.72;3514518;28;20035;-80
2021/06/25 01:04:24;;;;;;;18.58;13.95;;;;;;;28.37;50.72;99844.91;3524687;28;20784;-80
2021/06/25 01:06:05;;;;;;;15.40;13.07;;;;;;;28.36;50.69;99843.28;3507374;28;20035;-79
2021/06/25 01:07:46;;;;;;;18.33;13.90;;;;;;;28.35;50.77;99839.75;3521861;28;20286;-78
2021/06/25 01:09:27;;;;;;;17.90;12.17;;;;;;;28.23;51.07;99821.06;3524085;28;20096;-80
2021/06/25 01:11:08;;;;;;;23.33;11.90;;;;;;;28.32;50.94;99823.91;3524853;28;20277;-88
2021/06/25 01:12:50;;;;;;;22.60;13.43;;;;;;;28.32;50.60;99825.81;3521564;28;20039;-86
2021/06/25 01:14:32;;;;;;;16.88;11.82;;;;;;;28.30;50.60;99825.34;3510440;28;20075;-85
2021/06/25 01:16:14;;;;;;;19.52;12.65;;;;;;;28.28;50.48;99823.69;3521634;28;20039;-86
2021/06/25 01:17:55;;;;;;;16.88;11.57;;;;;;;28.28;50.74;99812.75;3525028;28;20472;-83
2021/06/25 01:19:36;;;;;;;14.02;12.23;;;;;;;28.28;50.41;99815.47;3525297;28;20043;-86
2021/06/25 01:21:17;;;;;;;17.13;11.90;;;;;;;28.30;50.88;99820.66;3526349;28;20502;-85
2021/06/25 01:22:58;;;;;;;13.57;11.55;;;;;;;28.27;50.76;99818.53;3525730;28;20035;-85
2021/06/25 01:24:39;;;;;;;13.55;11.10;;;;;;;28.23;50.71;99821.06;3510640;28;20043;-83
2021/06/25 01:26:20;;;;;;;28.93;12.83;;;;;;;28.26;50.58;99831.41;3511474;28;20078;-84
2021/06/25 01:28:04;;;;;;;12.03;10.80;;;;;;;28.26;50.57;99831.41;3511748;28;20042;-85
2021/06/25 01:29:45;;;;;;;14.32;10.40;;;;;;;28.17;50.82;99816.03;3512897;28;20286;-86
2021/06/25 01:31:26;;;;;;;11.15;9.82;;;;;;;28.21;50.98;99828.78;3498971;28;20564;-84
2021/06/25 01:33:14;;;;;;;12.07;10.07;;;;;;;28.20;50.62;99821.69;3515610;28;20031;-82
2021/06/25 01:35:12;;;;;;;12.65;9.48;;;;;;;28.17;50.74;99822.31;3524063;28;20387;-79
2021/06/25 01:36:53;;;;;;;9.27;8.38;;;;;;;28.15;50.40;99821.81;3525361;28;20092;-79
2021/06/25 01:38:34;;;;;;;11.43;9.00;;;;;;;28.11;50.78;99823.53;3509755;28;20113;-79
2021/06/25 01:40:16;;;;;;;11.40;8.80;;;;;;;28.10;50.52;99824.66;3521136;28;20037;-79
2021/06/25 01:41:57;;;;;;;8.88;7.57;;;;;;;28.05;50.53;99820.09;3521193;28;20473;-79
2021/06/25 01:43:39;;;;;;;9.93;7.10;;;;;;;28.02;50.33;99837.16;3515029;28;20036;-80
2021/06/25 01:45:22;;;;;;;16.05;8.38;;;;;;;27.97;50.34;99828.25;3511350;28;20405;-81
2021/06/25 01:47:03;;;;;;;12.43;8.23;;;;;;;27.97;50.71;99844.69;3510285;28;20556;-81
2021/06/25 01:48:44;;;;;;;11.15;7.25;;;;;;;27.88;50.48;99830.91;3522757;28;20101;-80
2021/06/25 01:50:27;;;;;;;9.87;7.10;;;;;;;27.93;50.13;99843.66;3526727;28;20043;-80
2021/06/25 01:52:12;;;;;;;9.25;7.07;;;;;;;27.90;50.55;99831.41;3528097;28;20031;-79
2021/06/25 01:53:52;;;;;;;9.25;7.13;;;;;;;27.92;50.29;99847.53;3515203;28;20052;-78
2021/06/25 01:55:41;;;;;;;9.63;8.30;;;;;;;27.91;50.50;99843.19;3511389;28;20051;-80
2021/06/25 01:57:22;;;;;;;11.55;7.32;;;;;;;27.86;50.02;99838.63;3512368;28;20044;-79
2021/06/25 01:59:03;;;;;;;9.67;7.03;;;;;;;27.92;50.33;99847.53;3516938;28;20093;-80
2021/06/25 02:01:05;;;;;;;18.88;8.45;;;;;;;27.91;50.12;99851.41;3515123;28;20096;-80
2021/06/25 02:02:47;;;;;;;13.20;8.07;;;;;;;27.90;49.86;99852.50;3514868;28;20071;-80
2021/06/25 02:04:27;;;;;;;8.68;7.85;;;;;;;27.89;49.77;99850.91;3524897;28;20108;-80
2021/06/25 02:06:08;;;;;;;11.57;7.53;;;;;;;27.88;49.83;99854.75;3522370;28;20574;-83
2021/06/25 02:07:49;;;;;;;9.65;7.10;;;;;;;27.72;50.12;99824.88;3525007;28;20537;-81
2021/06/25 02:09:30;;;;;;;10.67;7.17;;;;;;;27.83;50.08;99844.72;3524450;28;20565;-80
2021/06/25 02:11:12;;;;;;;14.02;7.68;;;;;;;27.80;49.64;99840.63;3525000;28;20520;-80
2021/06/25 02:12:53;;;;;;;9.45;7.60;;;;;;;27.82;49.88;99846.63;3522893;28;20050;-79
2021/06/25 02:14:34;;;;;;;12.85;7.35;;;;;;;27.83;49.82;99851.00;3506512;28;20441;-81
2021/06/25 02:16:15;;;;;;;8.13;7.17;;;;;;;27.77;49.74;99846.69;3522120;28;20048;-81
2021/06/25 02:17:56;;;;;;;9.60;7.03;;;;;;;27.82;49.53;99854.84;3509284;28;20070;-81
2021/06/25 02:19:38;;;;;;;11.40;7.88;;;;;;;27.81;49.97;99845.00;3522173;28;20058;-81
2021/06/25 02:21:18;;;;;;;8.83;7.33;;;;;;;27.82;49.86;99849.38;3525813;28;20414;-80
2021/06/25 02:22:59;;;;;;;7.60;6.90;;;;;;;27.79;49.83;99844.47;3525196;28;20510;-80
2021/06/25 02:24:41;;;;;;;8.63;6.23;;;;;;;27.81;49.64;99842.28;3522975;28;20505;-78
2021/06/25 02:26:22;;;;;;;14.15;7.20;;;;;;;27.78;49.73;99837.38;3526374;28;20039;-81
2021/06/25 02:28:03;;;;;;;8.93;6.80;;;;;;;27.86;49.46;99846.03;3525205;28;20484;-80
2021/06/25 02:29:44;;;;;;;11.15;6.97;;;;;;;27.87;49.32;99850.38;3525127;28;20044;-79
2021/06/25 02:31:25;;;;;;;7.38;6.10;;;;;;;27.88;49.70;99841.03;3525167;28;20058;-78
2021/06/25 02:33:06;;;;;;;9.63;7.10;;;;;;;27.90;49.73;99836.06;3519700;28;20131;-78
2021/06/25 02:34:46;;;;;;;12.97;7.60;;;;;;;27.89;49.62;99834.47;3510420;28;20076;-79
2021/06/25 02:36:27;;;;;;;9.70;8.10;;;;;;;27.87;49.63;99826.53;3510922;28;20445;-81
2021/06/25 02:38:08;;;;;;;11.47;7.50;;;;;;;27.91;49.21;99824.00;3509957;28;20039;-80
2021/06/25 02:39:49;;;;;;;9.15;7.13;;;;;;;27.92;49.26;99820.16;3507009;28;20412;-79
2021/06/25 02:41:30;;;;;;;10.63;7.25;;;;;;;27.94;49.08;99817.91;3493289;28;20123;-79
2021/06/25 02:43:11;;;;;;;8.18;7.18;;;;;;;27.95;49.62;99822.25;3508657;28;20395;-79
2021/06/25 02:44:51;;;;;;;10.60;6.70;;;;;;;27.95;49.79;99830.47;3514423;28;20039;-79
2021/06/25 02:46:32;;;;;;;13.70;7.70;;;;;;;27.97;49.74;99833.72;3524655;28;20452;-79
2021/06/25 02:48:13;;;;;;;8.75;6.63;;;;;;;27.96;49.23;99832.94;3518047;28;20079;-79
2021/06/25 02:49:54;;;;;;;10.65;7.30;;;;;;;27.97;49.24;99828.25;3510169;28;20148;-80
2021/06/25 02:51:35;;;;;;;15.47;10.30;;;;;;;27.98;49.18;99821.66;3518759;28;20046;-78
2021/06/25 02:53:15;;;;;;;12.33;9.13;;;;;;;28.00;49.05;99824.91;3524656;28;20533;-80
2021/06/25 02:54:57;;;;;;;14.07;8.60;;;;;;;28.02;49.07;99814.44;3524432;28;20502;-79
2021/06/25 02:56:37;;;;;;;11.90;8.20;;;;;;;27.98;49.10;99807.94;3524579;28;20043;-77
2021/06/25 02:58:19;;;;;;;8.80;6.07;;;;;;;28.06;48.82;99807.22;3524712;28;20040;-78
2021/06/25 03:00:00;;;;;;;12.98;6.93;;;;;;;28.07;48.51;99803.38;3524413;28;20131;-79
2021/06/25 03:01:41;;;;;;;12.43;7.47;;;;;;;28.10;48.83;99807.44;3521939;28;20541;-79
2021/06/25 03:03:22;;;;;;;12.57;7.00;;;;;;;28.10;48.32;99808.22;3516244;28;20126;-79
2021/06/25 03:05:04;;;;;;;10.52;6.78;;;;;;;28.17;48.35;99810.56;3520997;28;20092;-77
2021/06/25 03:06:45;;;;;;;9.43;6.88;;;;;;;28.19;48.49;99820.09;3524126;28;20054;-77
2021/06/25 03:08:26;;;;;;;13.88;11.35;;;;;;;28.21;48.32;99814.28;3524175;28;21350;-77
2021/06/25 03:10:07;;;;;;;23.83;16.87;;;;;;;28.25;48.47;99826.25;3524114;28;20081;-77
2021/06/25 03:11:48;;;;;;;22.52;13.43;;;;;;;28.26;48.62;99825.13;3520074;28;20043;-79
2021/06/25 03:13:29;;;;;;;10.63;9.43;;;;;;;28.27;48.49;99826.78;3510930;28;20135;-82
2021/06/25 03:15:10;;;;;;;10.23;9.20;;;;;;;28.26;48.33;99825.94;3511386;28;20035;-82
2021/06/25 03:16:51;;;;;;;9.00;8.05;;;;;;;28.33;48.14;99830.19;3508823;28;20044;-81
2021/06/25 03:18:32;;;;;;;11.03;7.87;;;;;;;28.39;48.15;99828.94;3519067;28;20051;-80
2021/06/25 03:20:13;;;;;;;11.15;7.72;;;;;;;28.38;47.96;99828.16;3526010;28;20035;-85
2021/06/25 03:21:54;;;;;;;;;;;;;;;28.47;48.17;99830.97;3524118;28;20031;-85
2021/06/25 03:23:35;;;;;;;9.35;6.28;;;;;;;28.40;47.89;99816.88;3515676;28;19926;-82
2021/06/25 03:25:15;;;;;;;7.50;6.70;;;;;;;28.42;47.89;99814.63;3514213;28;20047;-82
2021/06/25 03:26:56;;;;;;;8.67;6.70;;;;;;;28.48;47.58;99816.97;3515670;28;20290;-82
2021/06/25 03:28:37;;;;;;;8.70;6.23;;;;;;;28.49;47.71;99815.03;3518411;28;20297;-83
2021/06/25 03:30:18;;;;;;;9.03;6.47;;;;;;;28.52;47.28;99811.66;3516696;28;20046;-83
2021/06/25 03:31:59;;;;;;;12.32;6.70;;;;;;;28.54;47.67;99809.41;3512963;28;20278;-78
2021/06/25 03:33:40;;;;;;;9.10;5.53;;;;;;;28.55;47.37;99811.03;3522187;28;20036;-74
2021/06/25 03:35:21;;;;;;;10.83;6.07;;;;;;;28.56;47.45;99818.16;3526241;28;20790;-75
2021/06/25 03:37:02;;;;;;;14.07;6.97;;;;;;;28.57;47.13;99817.03;3526438;28;21169;-75
2021/06/25 03:38:43;;;;;;;11.05;6.45;;;;;;;28.59;47.09;99811.25;3526963;28;20039;-76
2021/06/25 03:40:25;;;;;;;10.07;6.10;;;;;;;28.62;47.31;99808.66;3526021;28;20546;-75
2021/06/25 03:42:06;;;;;;;7.93;6.38;;;;;;;28.61;46.96;99809.81;3511338;28;20039;-75
2021/06/25 03:43:47;;;;;;;8.15;6.10;;;;;;;28.66;47.22;99817.91;3513091;28;20065;-73
2021/06/25 03:45:28;;;;;;;10.97;6.80;;;;;;;28.69;46.64;99817.28;3517698;28;20044;-72
2021/06/25 03:47:08;;;;;;;11.00;6.57;;;;;;;28.71;46.80;99808.75;3517198;28;20067;-72
2021/06/25 03:48:49;;;;;;;11.90;6.77;;;;;;;28.72;46.83;99804.06;3513395;28;20039;-72
2021/06/25 03:50:30;;;;;;;12.23;5.93;;;;;;;28.74;46.89;99801.81;3521812;28;20321;-73
2021/06/25 03:52:12;;;;;;;7.50;6.20;;;;;;;28.79;46.77;99808.00;3528013;28;20134;-73
2021/06/25 03:53:53;;;;;;;7.68;6.55;;;;;;;28.79;46.39;99805.25;3525230;28;20467;-75
2021/06/25 03:55:34;;;;;;;7.17;5.90;;;;;;;28.86;46.70;99810.28;3525748;28;20039;-74
2021/06/25 03:57:14;;;;;;;10.03;5.93;;;;;;;28.88;46.72;99806.09;3526059;28;20042;-73
2021/06/25 03:58:55;;;;;;;8.37;6.03;;;;;;;28.90;46.91;99806.59;3512367;28;20036;-74
2021/06/25 04:00:36;;;;;;;9.23;6.73;;;;;;;28.85;46.85;99798.50;3511893;28;20051;-74
2021/06/25 04:02:17;;;;;;;11.07;5.63;;;;;;;28.95;46.64;99802.09;3510856;28;20040;-77
2021/06/25 04:03:57;;;;;;;6.57;5.90;;;;;;;28.94;46.62;99804.06;3523490;28;20047;-75
2021/06/25 04:05:38;;;;;;;8.97;5.87;;;;;;;29.04;46.64;99813.91;3524935;28;20537;-75
2021/06/25 04:07:19;;;;;;;9.77;5.90;;;;;;;29.09;46.58;99814.66;3525006;28;20067;-74
2021/06/25 04:09:00;;;;;;;9.40;6.03;;;;;;;29.12;46.70;99814.03;3515287;28;20063;-74
2021/06/25 04:10:42;;;;;;;7.93;5.53;;;;;;;29.15;46.59;99809.84;3525925;28;20138;-75
2021/06/25 04:12:23;;;;;;;8.90;6.35;;;;;;;29.19;46.64;99818.25;3525300;28;20046;-76
2021/06/25 04:14:04;;;;;;;10.00;6.37;;;;;;;29.22;46.30;99814.84;3507884;28;20051;-75
2021/06/25 04:15:45;;;;;;;7.55;6.53;;;;;;;29.23;46.44;99808.25;3523165;28;20126;-76
2021/06/25 04:17:26;;;;;;;8.93;5.97;;;;;;;29.26;46.51;99815.84;3524415;28;20036;-74
2021/06/25 04:19:06;;;;;;;7.40;6.60;;;;;;;29.30;46.45;99816.81;3524100;28;20078;-73
2021/06/25 04:20:48;;;;;;;7.70;6.63;;;;;;;29.33;46.25;99817.00;3514797;28;20423;-77
2021/06/25 04:22:29;;;;;;;13.93;7.43;;;;;;;29.35;46.00;99813.94;3496972;28;20045;-75
2021/06/25 04:24:10;;;;;;;9.00;6.70;;;;;;;29.39;46.19;99805.88;3508617;28;20036;-75
2021/06/25 04:25:50;;;;;;;8.98;6.20;;;;;;;29.42;46.34;99810.75;3513431;28;20282;-76
2021/06/25 04:27:31;;;;;;;8.93;6.03;;;;;;;29.46;46.00;99807.06;3519001;28;20123;-75
2021/06/25 04:29:14;;;;;;;6.68;6.00;;;;;;;29.51;46.20;99801.41;3517613;28;20084;-75
2021/06/25 04:30:55;;;;;;;13.40;6.68;;;;;;;29.51;45.99;99793.19;3511646;28;20044;-75
2021/06/25 04:32:36;;;;;;;26.02;8.30;;;;;;;29.59;45.73;99793.53;3512245;28;20047;-75
2021/06/25 04:34:17;;;;;;;20.75;7.03;;;;;;;29.59;45.80;99794.31;3525532;28;20040;-75
2021/06/25 04:35:58;;;;;;;17.10;6.73;;;;;;;29.63;45.72;99789.00;3525561;27;20044;-74
2021/06/25 04:37:38;;;;;;;13.40;6.07;;;;;;;29.65;45.50;99797.75;3525302;28;20035;-77
2021/06/25 04:39:19;;;;;;;9.95;7.43;;;;;;;29.68;45.57;99794.38;3523991;28;20410;-74
2021/06/25 04:41:01;;;;;;;11.90;6.53;;;;;;;29.71;45.50;99791.78;3525483;28;20520;-76
2021/06/25 04:42:44;;;;;;;14.65;6.25;;;;;;;29.78;45.39;99796.81;3525428;28;20825;-75
2021/06/25 04:44:25;;;;;;;13.18;7.07;;;;;;;29.82;45.41;99797.81;3524243;28;20058;-76
2021/06/25 04:46:07;;;;;;;12.90;7.03;;;;;;;29.86;45.40;99793.28;3525003;28;20040;-75
2021/06/25 04:47:48;;;;;;;7.27;5.73;;;;;;;29.89;45.08;99787.13;3521315;28;20135;-74
2021/06/25 04:49:28;;;;;;;13.25;7.00;;;;;;;29.90;45.20;99788.75;3510694;28;20044;-77
2021/06/25 04:51:09;;;;;;;10.85;6.55;;;;;;;29.97;45.00;99794.59;3510082;28;20036;-74
2021/06/25 04:52:50;;;;;;;14.48;6.53;;;;;;;30.03;45.05;99798.00;3511172;28;20058;-72
2021/06/25 04:54:31;;;;;;;9.80;6.73;;;;;;;30.06;44.88;99797.34;3511059;28;20040;-77
2021/06/25 04:56:12;;;;;;;9.40;6.17;;;;;;;30.11;44.73;99796.38;3494882;28;20378;-75
2021/06/25 04:57:53;;;;;;;8.52;7.55;;;;;;;30.16;44.80;99793.47;3510474;28;20292;-76
2021/06/25 04:59:34;;;;;;;11.30;6.75;;;;;;;30.21;44.83;99787.81;3503304;28;20132;-75
2021/06/25 05:01:15;;;;;;;8.20;6.80;;;;;;;30.24;44.95;99784.44;3508744;28;20036;-75
2021/06/25 05:02:56;;;;;;;11.85;8.00;;;;;;;30.32;44.68;99782.81;3515222;28;20537;-74
2021/06/25 05:04:37;;;;;;;11.77;6.63;;;;;;;30.35;44.62;99788.47;3525065;28;20054;-76
2021/06/25 05:06:17;;;;;;;15.77;6.50;;;;;;;30.39;44.52;99783.16;3525219;28;20047;-76
2021/06/25 05:07:58;;;;;;;11.03;7.37;;;;;;;30.46;44.41;99782.63;3520808;28;20040;-73
2021/06/25 05:09:39;;;;;;;13.82;7.05;;;;;;;30.50;44.06;99783.63;3521151;28;20082;-75
2021/06/25 05:11:20;;;;;;;7.53;6.75;;;;;;;30.53;43.99;99782.97;3521867;28;20202;-76
2021/06/25 05:13:03;;;;;;;11.00;6.32;;;;;;;30.61;44.32;99790.38;3515670;28;20051;-75
2021/06/25 05:14:43;;;;;;;8.93;6.72;;;;;;;30.68;44.02;99781.66;3511596;28;20097;-76
2021/06/25 05:16:24;;;;;;;10.88;6.07;;;;;;;30.74;43.98;99789.38;3511428;28;20044;-76
2021/06/25 05:18:16;;;;;;;8.47;6.13;;;;;;;30.82;43.59;99785.88;3510757;28;20048;-75
2021/06/25 05:19:57;;;;;;;10.20;6.38;;;;;;;30.89;43.88;99784.53;3511485;28;20369;-75
2021/06/25 05:21:37;;;;;;;13.40;6.57;;;;;;;30.92;43.41;99787.44;3511434;28;20410;-77
2021/06/25 05:23:20;;;;;;;7.15;6.45;;;;;;;30.99;43.22;99781.44;3512444;28;20301;-75
2021/06/25 05:25:01;;;;;;;11.25;6.35;;;;;;;31.04;43.19;99775.75;3511629;28;20402;-75
2021/06/25 05:26:42;;;;;;;14.60;6.93;;;;;;;31.08;43.24;99780.28;3512278;28;20123;-76
2021/06/25 05:28:23;;;;;;;9.00;6.22;;;;;;;31.14;42.60;99780.88;3512455;28;20055;-77
2021/06/25 05:30:05;;;;;;;13.87;6.30;;;;;;;31.15;42.78;99788.00;3510740;28;20047;-81
2021/06/25 05:31:47;;;;;;;7.75;6.85;;;;;;;31.17;42.59;99788.50;3523795;28;20048;-77
2021/06/25 05:33:27;;;;;;;7.82;6.80;;;;;;;31.21;42.41;99786.69;3513414;28;20040;-74
2021/06/25 05:35:09;;;;;;;8.93;6.55;;;;;;;31.19;42.66;99788.97;3510227;28;20484;-74
2021/06/25 05:36:50;;;;;;;7.80;5.95;;;;;;;31.25;42.52;99801.41;3511066;28;20874;-80
2021/06/25 05:38:30;;;;;;;11.80;6.68;;;;;;;31.33;42.39;99799.75;3509825;28;20036;-78
2021/06/25 05:40:12;;;;;;;11.73;6.77;;;;;;;31.41;42.42;99795.38;3510716;28;20044;-76
2021/06/25 05:41:53;;;;;;;9.65;6.32;;;;;;;31.47;42.44;99794.88;3510351;28;20339;-76
2021/06/25 05:43:33;;;;;;;11.18;6.13;;;;;;;31.52;42.19;99791.09;3510394;28;20566;-76
2021/06/25 05:45:14;;;;;;;6.63;6.03;;;;;;;31.63;42.24;99803.38;3510206;28;20044;-75
2021/06/25 05:46:55;;;;;;;10.85;7.15;;;;;;;31.69;41.93;99809.50;3510796;28;20433;-76
2021/06/25 05:48:36;;;;;;;8.03;6.60;;;;;;;31.71;42.00;99799.75;3510883;28;20526;-76
2021/06/25 05:50:19;;;;;;;10.07;7.75;;;;;;;31.82;41.95;99802.13;3517211;28;20393;-78
2021/06/25 05:52:00;;;;;;;8.90;6.95;;;;;;;31.91;41.74;99800.13;3524344;28;20089;-77
2021/06/25 05:53:41;;;;;;;8.25;6.47;;;;;;;31.94;41.87;99796.72;3524894;28;20090;-76
2021/06/25 05:55:22;;;;;;;9.38;6.40;;;;;;;31.99;41.69;99793.75;3524938;28;20138;-79
2021/06/25 05:57:03;;;;;;;10.35;7.40;;;;;;;32.06;41.39;99798.72;3518202;28;20043;-77
2021/06/25 05:58:44;;;;;;;7.68;6.72;;;;;;;32.14;41.51;99800.59;3520810;28;20051;-77
2021/06/25 06:00:25;;;;;;;10.13;6.93;;;;;;;32.16;41.28;99799.13;3509633;28;20040;-77
2021/06/25 06:02:06;;;;;;;7.68;6.15;;;;;;;32.24;41.59;99796.63;3506565;28;20044;-76
2021/06/25 06:03:47;;;;;;;11.27;6.60;;;;;;;32.30;41.28;99789.78;3521140;28;20035;-76
2021/06/25 06:05:28;;;;;;;8.18;5.90;;;;;;;32.37;41.33;99795.53;3524423;28;20614;-75
2021/06/25 06:07:10;;;;;;;10.38;6.75;;;;;;;32.47;41.14;99799.84;3524689;28;20469;-75
2021/06/25 06:08:51;;;;;;;10.02;6.93;;;;;;;32.54;40.87;99803.72;3522736;28;20039;-74
2021/06/25 06:10:33;;;;;;;9.43;6.20;;;;;;;32.61;41.24;99813.41;3513278;28;21197;-75
2021/06/25 06:12:14;;;;;;;7.18;6.47;;;;;;;32.64;40.90;99805.25;3510826;28;20703;-78
2021/06/25 06:13:54;;;;;;;11.10;7.43;;;;;;;32.69;40.81;99815.28;3517110;28;20043;-76
2021/06/25 06:15:35;;;;;;;7.57;6.47;;;;;;;32.71;40.65;99808.25;3521032;28;20028;-75
2021/06/25 06:17:19;;;;;;;15.13;6.82;;;;;;;32.77;40.82;99819.88;3527544;28;20425;-77
2021/06/25 06:19:01;;;;;;;18.38;7.50;;;;;;;32.83;40.63;99813.00;3517297;28;20032;-76
2021/06/25 06:20:42;;;;;;;14.70;6.90;;;;;;;32.93;40.36;99814.53;3512365;28;20143;-76
2021/06/25 06:32:34;;;;;;;9.52;6.07;;;;;;;33.41;39.80;99833.16;3508358;28;20035;-74
2021/06/25 06:34:16;;;;;;;11.23;6.97;;;;;;;33.47;39.61;99830.16;3511105;28;20040;-75
2021/06/25 06:35:56;;;;;;;13.32;6.75;;;;;;;33.56;39.36;99837.22;3511255;28;20075;-75
2021/06/25 06:37:37;;;;;;;10.73;6.13;;;;;;;33.64;39.11;99839.06;3510506;28;20583;-74
2021/06/25 06:39:18;;;;;;;13.57;6.38;;;;;;;33.77;39.20;99839.06;3510692;28;20070;-75
2021/06/25 06:40:59;;;;;;;16.17;7.70;;;;;;;33.86;39.14;99840.53;3515753;28;20410;-75
2021/06/25 06:42:40;;;;;;;15.40;6.53;;;;;;;34.01;39.06;99849.28;3511729;28;20134;-75
2021/06/25 06:44:21;;;;;;;20.58;6.97;;;;;;;34.13;38.89;99842.94;3514222;28;20063;-75
2021/06/25 06:46:01;;;;;;;13.13;6.03;;;;;;;34.26;38.28;99830.72;3513628;28;20032;-74
2021/06/25 06:47:43;;;;;;;8.27;6.25;;;;;;;34.38;38.17;99841.72;3510181;28;20044;-75
2021/06/25 06:49:24;;;;;;;16.13;7.43;;;;;;;34.48;38.10;99848.72;3511155;28;20068;-75
2021/06/25 06:51:06;;;;;;;11.85;6.20;;;;;;;34.58;37.88;99845.47;3511221;28;20055;-75
2021/06/25 06:52:49;;;;;;;14.70;6.30;;;;;;;34.71;37.69;99852.56;3509738;28;20477;-76
2021/06/25 06:54:30;;;;;;;20.77;7.45;;;;;;;34.85;38.13;99856.88;3520805;28;20066;-77
2021/06/25 06:56:16;;;;;;;17.35;7.45;;;;;;;34.92;37.77;99860.66;3521325;28;20042;-76
2021/06/25 06:57:57;;;;;;;12.07;6.72;;;;;;;34.99;37.87;99856.50;3516576;28;20459;-75
2021/06/25 06:59:40;;;;;;;16.40;7.10;;;;;;;35.02;37.78;99862.13;3499837;28;20123;-75
2021/06/25 07:01:23;;;;;;;14.65;6.95;;;;;;;35.10;37.36;99863.13;3509713;28;20036;-76
2021/06/25 07:03:05;;;;;;;19.13;7.93;;;;;;;35.13;37.09;99862.41;3511552;28;20069;-75
2021/06/25 07:04:46;;;;;;;;;;;;;;;35.23;37.67;99863.88;3516074;28;20036;-76
2021/06/25 07:06:28;;;;;;;16.27;7.43;;;;;;;35.25;37.43;99854.03;3512600;28;19926;-77
2021/06/25 07:08:08;;;;;;;10.13;7.05;;;;;;;35.35;37.52;99861.03;3512171;28;20111;-75
2021/06/25 07:09:49;;;;;;;14.63;7.65;;;;;;;35.42;37.12;99850.13;3513072;28;21169;-76
2021/06/25 07:11:31;;;;;;;15.32;8.07;;;;;;;35.55;37.11;99857.16;3517636;28;20039;-76
2021/06/25 07:13:13;;;;;;;17.58;8.32;;;;;;;35.61;37.71;99852.19;3518495;28;20126;-76
2021/06/25 07:14:55;;;;;;;22.20;8.43;;;;;;;35.67;37.65;99853.50;3526547;28;20047;-76
2021/06/25 07:16:35;;;;;;;20.35;9.10;;;;;;;35.77;37.75;99847.41;3514347;28;20048;-76
2021/06/25 07:18:16;;;;;;;18.23;9.93;;;;;;;35.84;37.69;99849.56;3526159;28;20056;-77
2021/06/25 07:19:58;;;;;;;21.85;11.38;;;;;;;35.83;37.50;99847.94;3513560;28;20137;-76
2021/06/25 07:21:39;;;;;;;15.95;9.60;;;;;;;35.67;37.88;99858.25;3514473;28;20090;-73
2021/06/25 07:23:20;;;;;;;16.83;9.40;;;;;;;35.44;38.55;99853.31;3525353;28;20131;-73
2021/06/25 07:25:00;;;;;;;16.42;9.25;;;;;;;35.25;38.88;99854.03;3530708;28;20130;-79
2021/06/25 07:26:41;;;;;;;20.15;11.13;;;;;;;35.07;39.35;99859.09;3522500;28;20122;-77
2021/06/25 07:28:22;;;;;;;14.52;10.63;;;;;;;34.87;39.24;99857.34;3522993;28;20036;-73
2021/06/25 07:30:07;;;;;;;18.15;11.15;;;;;;;34.64;39.86;99857.91;3527097;28;20437;-76
2021/06/25 07:31:48;;;;;;;20.75;10.40;;;;;;;34.45;40.02;99853.00;3523694;28;20073;-75
2021/06/25 07:33:29;;;;;;;24.23;10.57;;;;;;;34.21;40.51;99851.13;3522409;28;20047;-75
2021/06/25 07:35:10;;;;;;;15.07;10.38;;;;;;;34.02;40.92;99861.94;3508944;28;20430;-74
2021/06/25 07:36:51;;;;;;;14.38;10.27;;;;;;;33.82;41.46;99850.69;3519782;28;20571;-76
2021/06/25 07:38:31;;;;;;;20.98;9.57;;;;;;;33.64;41.83;99854.84;3512999;28;20036;-77
2021/06/25 07:40:13;;;;;;;15.05;9.50;;;;;;;33.47;41.96;99857.81;3513460;28;20034;-74
2021/06/25 07:41:53;;;;;;;16.58;10.10;;;;;;;33.26;42.11;99842.13;3512090;28;20035;-75
2021/06/25 07:43:34;;;;;;;16.75;10.13;;;;;;;33.16;42.56;99856.38;3506985;28;20036;-75
2021/06/25 07:45:15;;;;;;;18.80;9.60;;;;;;;32.99;42.50;99860.91;3512199;28;20040;-75
2021/06/25 07:46:56;;;;;;;15.15;9.80;;;;;;;32.89;42.50;99858.59;3511303;28;20040;-75
2021/06/25 07:48:36;;;;;;;9.70;8.23;;;;;;;32.76;42.33;99862.44;3518441;28;20494;-74
2021/06/25 07:50:18;;;;;;;12.45;8.02;;;;;;;32.64;42.73;99876.19;3514009;28;20039;-76
2021/06/25 07:51:59;;;;;;;15.43;9.25;;;;;;;32.56;42.54;99867.66;3516687;28;20074;-75
2021/06/25 07:53:39;;;;;;;11.87;7.73;;;;;;;32.48;42.44;99871.31;3517283;28;20032;-74
2021/06/25 07:55:20;;;;;;;11.77;7.20;;;;;;;32.41;42.05;99861.91;3517175;28;20938;-74
2021/06/25 07:57:01;;;;;;;13.45;7.53;;;;;;;32.31;41.92;99869.44;3518432;28;20406;-74
2021/06/25 07:58:42;;;;;;;13.20;7.57;;;;;;;32.24;41.80;99860.09;3518629;28;20063;-76
2021/06/25 08:00:22;;;;;;;11.05;7.50;;;;;;;32.17;41.81;99860.63;3518585;28;20043;-73
2021/06/25 08:02:03;;;;;;;12.57;7.20;;;;;;;32.11;41.78;99853.69;3516911;28;20046;-75